Uitenhage, South Africa
Current Conditions -  °F | °C
As of 5:00 AM on Saturday 25 Oct 2014 (Local Time) from FAPE Reporting Station
Broken Clouds Broken Clouds  
Wind Chill: 63°   Ceiling: 3300
Heat Index: 63°   Visibility: 6mi
Dew Point: 57°   Wind: 8mph
Humidity: 82%   Direction: 150°SSE
Pressure: 30.15"   Gusts: NA
Location:  33.76°S, 25.39°E
Report Text: FAPE 250300Z 15007KT 9999 SCT022 BKN033 17/14 Q1021 NOSIG
Loading
Personal Weather Stations






























Interactive Weather Map
Tropical Storm Tracking
New forecast layout! Learn more

10-Day Weather Forecast

Advertisements
Track Severe Weather on mobile